Time;durP1;ratioP1;P1;durP2;ratioP2;P2;SDS_P1;SDS_P2;PMS_P1;PMS_P2;Temp;Humidity;BMP_temperature;BMP_pressure;BME280_temperature;BME280_humidity;BME280_pressure;Samples;Min_cycle;Max_cycle;Signal;HPM_P1;HPM_P2
2023/02/18 00:01:37;;;;;;;6.97;0.25;;;22.20;51.30;;;;;;5027524;28;20116;-62
2023/02/18 00:04:04;;;;;;;3.60;0.40;;;22.10;51.10;;;;;;5027372;28;20046;-62
2023/02/18 00:06:34;;;;;;;0.82;0.32;;;22.20;51.10;;;;;;5027577;28;20049;-63
2023/02/18 00:09:05;;;;;;;0.63;0.43;;;22.10;51.10;;;;;;5028019;28;20518;-63
2023/02/18 00:11:34;;;;;;;0.95;0.35;;;22.20;51.20;;;;;;5027784;28;20498;-62
2023/02/18 00:14:02;;;;;;;1.33;0.30;;;22.20;51.20;;;;;;5027781;28;20069;-62
2023/02/18 00:16:30;;;;;;;2.50;0.20;;;22.10;51.20;;;;;;5027729;28;20131;-62
2023/02/18 00:18:58;;;;;;;5.47;0.40;;;22.10;51.10;;;;;;5026801;28;20034;-61
2023/02/18 00:21:26;;;;;;;0.80;0.50;;;22.20;51.20;;;;;;5027736;28;20057;-61
2023/02/18 00:23:53;;;;;;;1.50;0.20;;;22.10;51.10;;;;;;5035841;28;20444;-62
2023/02/18 00:26:22;;;;;;;2.63;0.30;;;22.10;51.10;;;;;;5031417;28;20315;-61
2023/02/18 00:28:50;;;;;;;4.80;0.40;;;22.10;51.20;;;;;;5027518;28;20518;-62
2023/02/18 00:31:19;;;;;;;2.58;0.30;;;22.10;51.20;;;;;;5027559;28;20199;-62
2023/02/18 00:33:46;;;;;;;3.25;0.43;;;22.10;51.20;;;;;;5026803;28;20048;-63
2023/02/18 00:36:15;;;;;;;5.30;0.30;;;22.10;51.20;;;;;;5025424;28;20068;-62
2023/02/18 00:38:45;;;;;;;3.03;0.10;;;22.10;51.20;;;;;;5027468;28;20037;-62
2023/02/18 00:41:12;;;;;;;0.68;0.57;;;22.10;51.30;;;;;;5025978;28;20050;-64
2023/02/18 00:43:40;;;;;;;1.73;0.40;;;22.10;51.20;;;;;;5027233;28;20041;-64
2023/02/18 00:46:08;;;;;;;2.22;0.60;;;22.10;51.20;;;;;;5027026;28;20077;-62
2023/02/18 00:48:36;;;;;;;5.15;0.43;;;22.10;51.30;;;;;;5026113;28;20042;-63
2023/02/18 00:51:03;;;;;;;5.07;0.10;;;22.10;51.20;;;;;;5025481;28;20045;-65
2023/02/18 00:53:30;;;;;;;3.70;0.10;;;22.10;51.20;;;;;;5027004;28;20456;-65
2023/02/18 00:55:59;;;;;;;0.52;0.20;;;22.10;51.30;;;;;;5026944;28;20135;-62
2023/02/18 00:58:26;;;;;;;4.97;0.30;;;22.10;51.30;;;;;;5026922;28;20041;-63
2023/02/18 01:00:55;;;;;;;0.90;0.63;;;22.10;51.20;;;;;;5026574;28;20413;-63
2023/02/18 01:03:23;;;;;;;1.13;0.45;;;22.10;51.40;;;;;;5026222;28;20053;-63
2023/02/18 01:05:51;;;;;;;1.65;0.50;;;22.10;51.40;;;;;;5025069;28;20046;-62
2023/02/18 01:08:19;;;;;;;3.00;0.77;;;22.10;51.70;;;;;;5026820;28;20524;-62
2023/02/18 01:10:48;;;;;;;4.00;0.20;;;22.10;51.60;;;;;;5026587;28;20081;-63
2023/02/18 01:13:17;;;;;;;5.75;0.38;;;22.10;51.70;;;;;;5025284;28;20052;-62
2023/02/18 01:15:45;;;;;;;1.30;0.35;;;22.10;51.70;;;;;;5025158;28;20477;-62
2023/02/18 01:18:14;;;;;;;0.10;0.10;;;22.10;51.80;;;;;;5025901;28;20047;-62
2023/02/18 01:20:43;;;;;;;1.48;0.20;;;22.10;51.90;;;;;;5029396;28;20041;-64
2023/02/18 01:23:11;;;;;;;2.90;0.17;;;22.10;51.90;;;;;;5044817;28;20049;-62
2023/02/18 01:25:38;;;;;;;1.77;0.10;;;22.10;52.00;;;;;;5035335;28;20042;-63
2023/02/18 01:28:06;;;;;;;0.80;0.77;;;22.10;52.10;;;;;;5026248;28;20049;-62
2023/02/18 01:30:33;;;;;;;0.68;0.20;;;22.10;52.20;;;;;;5026324;28;20111;-57
2023/02/18 01:33:00;;;;;;;1.25;1.15;;;22.10;52.30;;;;;;5026707;28;20048;-62
2023/02/18 01:35:29;;;;;;;3.40;0.55;;;22.10;52.20;;;;;;5025356;28;20049;-61
2023/02/18 01:37:56;;;;;;;0.40;0.20;;;22.10;52.30;;;;;;5026526;28;20044;-63
2023/02/18 01:40:26;;;;;;;1.35;0.30;;;22.10;52.30;;;;;;5041839;28;20799;-61
2023/02/18 01:42:53;;;;;;;0.28;0.10;;;22.10;52.20;;;;;;5058573;28;20045;-63
2023/02/18 01:45:47;;;;;;;0.30;0.10;;;22.00;52.20;;;;;;5057702;28;20054;-62
2023/02/18 01:48:21;;;;;;;0.10;0.10;;;22.10;52.30;;;;;;5026376;28;20080;-62
2023/02/18 01:50:54;;;;;;;1.27;0.25;;;22.00;52.20;;;;;;5026141;28;20406;-61
2023/02/18 01:53:26;;;;;;;0.20;0.20;;;22.10;52.30;;;;;;5026148;28;20053;-62
2023/02/18 01:55:54;;;;;;;0.17;0.17;;;22.00;52.20;;;;;;5024716;28;20052;-62
2023/02/18 01:58:21;;;;;;;0.30;0.10;;;22.00;52.30;;;;;;5024521;28;20120;-62
2023/02/18 02:00:48;;;;;;;0.30;0.20;;;22.10;52.50;;;;;;5024131;28;20099;-61
2023/02/18 02:03:15;;;;;;;0.28;0.28;;;22.10;52.50;;;;;;5023972;28;20643;-62
2023/02/18 02:05:44;;;;;;;0.10;0.10;;;22.00;52.40;;;;;;5025804;28;20422;-62
2023/02/18 02:08:17;;;;;;;0.20;0.10;;;22.00;52.50;;;;;;5025915;28;20053;-62
2023/02/18 02:10:59;;;;;;;0.10;0.10;;;22.00;52.40;;;;;;5024583;28;20116;-62
2023/02/18 02:13:33;;;;;;;0.10;0.10;;;22.00;52.50;;;;;;5026086;28;20111;-62
2023/02/18 02:16:09;;;;;;;0.40;0.10;;;22.00;52.60;;;;;;5023799;28;20120;-62
2023/02/18 02:18:49;;;;;;;0.43;0.10;;;22.00;52.60;;;;;;5038875;28;20413;-62
2023/02/18 02:21:47;;;;;;;0.22;0.22;;;22.00;52.60;;;;;;5024368;28;20037;-62
2023/02/18 02:24:58;;;;;;;0.30;0.10;;;22.00;52.70;;;;;;5025658;28;20050;-61
2023/02/18 02:27:40;;;;;;;0.10;0.10;;;22.00;52.70;;;;;;5025651;28;20060;-62
2023/02/18 02:30:38;;;;;;;0.38;0.10;;;22.00;52.90;;;;;;5025178;28;20041;-61
2023/02/18 02:33:42;;;;;;;0.65;0.10;;;22.00;52.70;;;;;;5025617;28;20160;-62
2023/02/18 02:36:15;;;;;;;0.52;0.10;;;22.00;52.70;;;;;;4986513;28;20045;-61
2023/02/18 02:38:54;;;;;;;0.95;0.20;;;22.00;53.00;;;;;;5003296;28;20050;-62
2023/02/18 02:41:33;;;;;;;0.10;0.10;;;21.90;52.90;;;;;;4986702;28;20042;-61
2023/02/18 02:44:13;;;;;;;0.25;0.10;;;21.90;52.90;;;;;;4986490;28;20619;-62
2023/02/18 02:46:44;;;;;;;0.43;0.10;;;21.90;53.00;;;;;;5002880;28;20585;-63
2023/02/18 02:49:20;;;;;;;0.10;0.10;;;22.00;53.70;;;;;;4983225;28;20129;-63
2023/02/18 02:51:53;;;;;;;1.58;0.17;;;21.90;53.10;;;;;;4983220;28;20632;-64
2023/02/18 02:54:23;;;;;;;0.40;0.10;;;21.90;53.00;;;;;;4967215;28;20050;-63
2023/02/18 02:57:06;;;;;;;0.10;0.10;;;21.90;53.10;;;;;;4951059;28;20052;-63
2023/02/18 02:59:36;;;;;;;0.47;0.10;;;21.90;53.10;;;;;;4966675;28;20077;-63
2023/02/18 03:02:18;;;;;;;0.13;0.10;;;21.90;53.00;;;;;;4982871;28;20078;-64
2023/02/18 03:05:00;;;;;;;0.10;0.10;;;21.90;53.00;;;;;;4983347;28;20134;-63
2023/02/18 03:07:46;;;;;;;5.05;0.10;;;22.00;53.40;;;;;;4966947;28;20065;-60
2023/02/18 03:10:34;;;;;;;0.60;0.10;;;21.90;53.40;;;;;;4996233;28;20077;-62
2023/02/18 03:13:11;;;;;;;0.95;0.10;;;21.90;53.40;;;;;;5017921;28;20049;-62
2023/02/18 03:15:47;;;;;;;0.13;0.13;;;22.00;53.40;;;;;;5060460;28;20041;-63
2023/02/18 03:18:21;;;;;;;2.10;0.10;;;21.90;53.50;;;;;;5060401;28;20129;-62
2023/02/18 03:20:54;;;;;;;0.40;0.25;;;21.90;53.40;;;;;;5027320;28;20091;-63
2023/02/18 03:23:27;;;;;;;0.77;0.22;;;22.00;53.30;;;;;;5028563;28;20154;-63
2023/02/18 03:25:57;;;;;;;0.55;0.10;;;21.90;53.40;;;;;;5035721;28;20498;-63
2023/02/18 03:28:31;;;;;;;0.17;0.10;;;22.00;53.40;;;;;;5026891;28;20049;-63
2023/02/18 03:31:03;;;;;;;0.25;0.10;;;21.90;53.50;;;;;;5028419;28;20289;-64
2023/02/18 03:33:36;;;;;;;0.20;0.10;;;21.90;53.30;;;;;;5027261;28;20147;-63
2023/02/18 03:36:05;;;;;;;0.20;0.15;;;21.90;53.30;;;;;;5027128;28;20045;-64
2023/02/18 03:38:37;;;;;;;0.80;0.15;;;21.90;53.30;;;;;;5028475;28;20048;-64
2023/02/18 03:41:05;;;;;;;0.28;0.10;;;21.90;53.30;;;;;;5028191;28;20533;-64
2023/02/18 03:43:34;;;;;;;0.30;0.10;;;21.90;53.20;;;;;;5027072;28;20053;-63
2023/02/18 03:46:02;;;;;;;0.10;0.10;;;21.90;53.20;;;;;;5027962;28;20034;-64
2023/02/18 03:48:29;;;;;;;2.28;0.17;;;21.90;53.20;;;;;;5028103;28;20057;-63
2023/02/18 03:50:56;;;;;;;0.20;0.20;;;21.90;53.10;;;;;;5028003;28;20045;-64
2023/02/18 03:53:23;;;;;;;0.10;0.10;;;21.90;53.30;;;;;;5026801;28;20119;-62
2023/02/18 03:55:52;;;;;;;0.45;0.10;;;21.90;53.30;;;;;;5027787;28;20596;-62
2023/02/18 03:58:19;;;;;;;0.10;0.10;;;21.90;53.30;;;;;;5027990;28;20140;-63
2023/02/18 04:00:46;;;;;;;2.30;0.20;;;21.90;53.30;;;;;;5027773;28;20049;-63
2023/02/18 04:03:13;;;;;;;0.20;0.10;;;21.90;53.30;;;;;;5027632;28;20068;-63
2023/02/18 04:05:40;;;;;;;1.38;0.10;;;21.90;53.30;;;;;;5027745;28;20033;-63
2023/02/18 04:08:08;;;;;;;0.65;0.10;;;21.90;53.20;;;;;;5027845;28;20537;-63
2023/02/18 04:10:35;;;;;;;3.35;1.05;;;21.80;53.20;;;;;;5027470;28;20051;-62
2023/02/18 04:13:04;;;;;;;1.52;0.10;;;21.80;53.30;;;;;;5028685;28;20526;-63
2023/02/18 04:15:33;;;;;;;0.55;0.10;;;21.90;53.30;;;;;;5045591;28;20045;-62
2023/02/18 04:18:00;;;;;;;0.52;0.20;;;21.90;53.40;;;;;;5038221;28;20049;-63
2023/02/18 04:20:27;;;;;;;0.30;0.10;;;21.80;53.50;;;;;;5027268;28;20042;-63
2023/02/18 04:22:55;;;;;;;0.43;0.43;;;21.90;53.60;;;;;;5027159;28;20120;-63
2023/02/18 04:25:22;;;;;;;0.10;0.10;;;21.90;53.80;;;;;;5026907;28;20378;-64
2023/02/18 04:27:49;;;;;;;0.30;0.30;;;21.90;53.90;;;;;;5026866;28;20417;-63
2023/02/18 04:30:18;;;;;;;0.52;0.10;;;21.80;53.70;;;;;;5027221;28;20052;-63
2023/02/18 04:32:46;;;;;;;0.20;0.10;;;21.80;53.60;;;;;;5026957;28;20061;-64
2023/02/18 04:35:13;;;;;;;0.40;0.10;;;21.80;53.70;;;;;;5027018;28;20049;-64
2023/02/18 04:37:40;;;;;;;1.05;0.10;;;21.90;53.80;;;;;;5026783;28;20501;-64
2023/02/18 04:40:08;;;;;;;0.28;0.10;;;21.90;53.60;;;;;;5027044;28;20417;-64
2023/02/18 04:42:35;;;;;;;0.10;0.10;;;21.90;53.70;;;;;;5026813;28;20092;-64
2023/02/18 04:45:02;;;;;;;0.68;0.10;;;21.90;53.60;;;;;;5026833;28;20044;-64
2023/02/18 04:47:31;;;;;;;0.40;0.40;;;21.90;53.40;;;;;;5026792;28;20045;-63
2023/02/18 04:49:58;;;;;;;1.45;0.15;;;21.90;53.50;;;;;;5027088;28;20580;-64
2023/02/18 04:52:25;;;;;;;0.55;0.10;;;21.90;53.30;;;;;;5026520;28;20041;-63
2023/02/18 04:54:52;;;;;;;0.10;0.10;;;21.90;53.40;;;;;;5026461;28;20041;-63
2023/02/18 04:57:19;;;;;;;0.40;0.40;;;21.90;53.40;;;;;;5027023;28;20056;-64
2023/02/18 04:59:46;;;;;;;0.10;0.10;;;21.80;53.20;;;;;;5026642;28;20050;-64
2023/02/18 05:02:13;;;;;;;0.17;0.10;;;21.90;53.30;;;;;;5025181;28;20642;-64
2023/02/18 05:04:42;;;;;;;0.10;0.10;;;21.90;53.20;;;;;;5026401;28;20037;-64
2023/02/18 05:07:09;;;;;;;0.20;0.10;;;21.90;53.20;;;;;;5026326;28;20087;-64
2023/02/18 05:09:36;;;;;;;1.27;1.17;;;21.90;53.30;;;;;;5026159;28;20080;-64
2023/02/18 05:12:03;;;;;;;0.82;0.10;;;21.80;53.10;;;;;;5026420;28;20464;-63
2023/02/18 05:14:30;;;;;;;1.45;0.68;;;21.90;53.10;;;;;;5026530;28;20052;-64
2023/02/18 05:16:57;;;;;;;0.10;0.10;;;21.80;52.90;;;;;;5026440;28;20517;-64
2023/02/18 05:19:25;;;;;;;1.45;0.47;;;21.80;52.90;;;;;;5026173;28;20037;-63
2023/02/18 05:21:54;;;;;;;0.28;0.10;;;21.80;52.70;;;;;;5026366;28;20067;-64
2023/02/18 05:24:21;;;;;;;0.30;0.20;;;21.90;52.80;;;;;;5025987;28;20517;-63
2023/02/18 05:26:48;;;;;;;0.08;0.08;;;21.80;52.60;;;;;;5024706;28;20617;-63
2023/02/18 05:29:15;;;;;;;0.65;0.10;;;21.80;52.60;;;;;;5033122;28;20044;-63
2023/02/18 05:31:42;;;;;;;1.35;0.10;;;21.80;52.50;;;;;;5045815;28;20151;-63
2023/02/18 05:34:09;;;;;;;0.10;0.10;;;21.80;52.40;;;;;;5045256;28;20049;-62
2023/02/18 05:36:36;;;;;;;0.20;0.10;;;21.80;52.20;;;;;;5032830;28;20128;-63
2023/02/18 05:39:05;;;;;;;1.65;0.43;;;21.80;52.20;;;;;;5025818;28;20068;-62
2023/02/18 05:41:32;;;;;;;0.93;0.10;;;21.80;52.20;;;;;;5025698;28;20518;-63
2023/02/18 05:46:43;;;;;;;0.10;0.10;;;21.80;52.20;;;;;;5025711;28;20195;-63
2023/02/18 05:49:11;;;;;;;0.22;0.22;;;21.80;52.20;;;;;;5025551;28;20842;-63
2023/02/18 05:51:38;;;;;;;0.20;0.10;;;21.80;52.10;;;;;;5024123;28;20041;-62
2023/02/18 05:54:07;;;;;;;0.00;0.00;;;21.70;52.10;;;;;;5025818;28;20049;-63
2023/02/18 05:56:34;;;;;;;0.10;0.10;;;21.70;52.10;;;;;;5025922;28;20045;-63
2023/02/18 05:59:01;;;;;;;0.10;0.10;;;21.70;52.10;;;;;;5025759;28;20080;-63
2023/02/18 06:01:30;;;;;;;0.57;0.25;;;21.70;52.10;;;;;;5025907;28;20049;-62
2023/02/18 06:03:58;;;;;;;0.20;0.10;;;21.70;52.10;;;;;;5025136;28;20080;-63
2023/02/18 06:06:25;;;;;;;0.30;0.30;;;21.70;52.00;;;;;;5025524;28;20049;-63
2023/02/18 06:08:52;;;;;;;0.80;0.10;;;21.70;52.50;;;;;;5025797;28;20060;-63
2023/02/18 06:11:20;;;;;;;0.08;0.05;;;21.70;52.00;;;;;;5025689;28;20049;-63
2023/02/18 06:13:48;;;;;;;0.10;0.00;;;21.70;51.90;;;;;;5025711;28;20051;-64
2023/02/18 06:16:15;;;;;;;0.10;0.10;;;21.70;51.90;;;;;;5025746;28;20406;-64
2023/02/18 06:18:42;;;;;;;0.50;0.10;;;21.70;51.90;;;;;;5028214;28;20038;-64
2023/02/18 06:21:10;;;;;;;0.35;0.10;;;21.70;52.10;;;;;;5026269;28;20045;-64
2023/02/18 06:23:37;;;;;;;0.35;0.10;;;21.70;52.10;;;;;;5025371;28;20122;-63
2023/02/18 06:26:05;;;;;;;0.20;0.10;;;21.70;52.20;;;;;;5025370;28;20049;-64
2023/02/18 06:28:33;;;;;;;0.10;0.10;;;21.70;52.10;;;;;;5025575;28;20064;-64
2023/02/18 06:31:00;;;;;;;0.03;0.00;;;21.70;52.10;;;;;;5025512;28;20581;-64
2023/02/18 06:33:28;;;;;;;0.10;0.10;;;21.70;52.20;;;;;;5024069;28;20050;-65
2023/02/18 06:35:57;;;;;;;1.65;0.15;;;21.70;52.20;;;;;;5024826;28;20052;-64
2023/02/18 06:38:25;;;;;;;0.57;0.10;;;21.70;52.10;;;;;;5025579;28;20521;-64
2023/02/18 06:40:54;;;;;;;0.30;0.17;;;21.70;52.00;;;;;;5025237;28;20037;-64
2023/02/18 06:43:21;;;;;;;0.20;0.10;;;21.70;52.00;;;;;;5025610;28;20485;-63
2023/02/18 06:45:50;;;;;;;3.03;0.20;;;21.70;52.10;;;;;;5027130;28;20049;-64
2023/02/18 06:48:17;;;;;;;0.10;0.10;;;21.70;52.10;;;;;;5028704;28;20053;-62
2023/02/18 06:50:44;;;;;;;0.98;0.10;;;21.70;52.20;;;;;;5028520;28;20077;-63
2023/02/18 06:53:11;;;;;;;0.80;0.55;;;21.70;52.30;;;;;;5028751;28;20038;-63
2023/02/18 06:55:38;;;;;;;1.10;0.10;;;21.70;52.30;;;;;;5029146;28;20137;-63
2023/02/18 06:58:05;;;;;;;0.10;0.05;;;21.70;52.20;;;;;;5029006;28;20046;-64
2023/02/18 07:00:32;;;;;;;0.10;0.10;;;21.70;52.30;;;;;;5028624;28;20045;-63
2023/02/18 07:03:02;;;;;;;0.28;0.10;;;21.70;52.30;;;;;;5028440;28;20076;-62
2023/02/18 07:05:29;;;;;;;1.58;0.10;;;21.70;52.20;;;;;;5028058;28;20129;-62
2023/02/18 07:07:56;;;;;;;0.10;0.10;;;21.70;52.30;;;;;;5028449;28;20054;-63
2023/02/18 07:10:25;;;;;;;0.22;0.10;;;21.70;52.30;;;;;;5028331;28;20046;-64
2023/02/18 07:12:52;;;;;;;0.52;0.10;;;21.70;52.10;;;;;;5028334;28;20532;-63
2023/02/18 07:15:23;;;;;;;0.35;0.10;;;21.70;52.00;;;;;;5028509;28;20124;-63
2023/02/18 07:17:50;;;;;;;0.00;0.00;;;21.70;52.00;;;;;;5034962;28;20575;-63
2023/02/18 07:20:19;;;;;;;0.20;0.20;;;21.70;52.00;;;;;;5036744;28;20488;-63
2023/02/18 07:22:47;;;;;;;0.10;0.10;;;21.70;52.00;;;;;;5028678;28;20041;-63
2023/02/18 07:25:15;;;;;;;0.10;0.10;;;21.70;52.00;;;;;;5028705;28;20053;-64
2023/02/18 07:27:42;;;;;;;0.88;0.52;;;21.70;51.90;;;;;;5028532;28;20080;-63
2023/02/18 07:30:10;;;;;;;0.20;0.10;;;21.70;51.90;;;;;;5028524;28;20049;-63
2023/02/18 07:32:37;;;;;;;1.10;0.15;;;21.70;51.80;;;;;;5028692;28;20071;-63
2023/02/18 07:35:05;;;;;;;0.10;0.10;;;21.70;51.70;;;;;;5027865;28;20128;-63
2023/02/18 07:37:33;;;;;;;0.80;0.10;;;21.70;51.80;;;;;;5028133;28;20046;-62
2023/02/18 07:40:00;;;;;;;0.32;0.32;;;21.60;51.60;;;;;;5040463;28;20049;-62
2023/02/18 07:42:28;;;;;;;0.55;0.10;;;21.70;51.80;;;;;;5048032;28;20045;-63
2023/02/18 07:44:55;;;;;;;1.65;0.10;;;21.70;51.90;;;;;;5046940;28;20071;-62
2023/02/18 07:47:22;;;;;;;0.70;0.60;;;21.60;51.70;;;;;;5028622;28;20045;-62
2023/02/18 07:49:49;;;;;;;2.28;0.10;;;21.70;51.60;;;;;;5027573;28;20060;-62
2023/02/18 07:52:16;;;;;;;0.10;0.10;;;21.60;51.60;;;;;;5027865;28;20060;-62
2023/02/18 07:54:44;;;;;;;1.15;0.00;;;21.60;51.60;;;;;;5028209;28;20048;-63
2023/02/18 07:57:11;;;;;;;7.72;0.10;;;21.70;51.70;;;;;;5027614;28;20037;-63
2023/02/18 07:59:38;;;;;;;0.47;0.03;;;21.70;51.70;;;;;;5027697;28;20145;-62
2023/02/18 08:02:06;;;;;;;1.30;0.10;;;21.60;51.80;;;;;;5027608;28;20048;-63
2023/02/18 08:04:33;;;;;;;0.65;0.10;;;21.60;51.80;;;;;;5027698;28;20056;-63
2023/02/18 08:07:00;;;;;;;2.25;0.10;;;21.70;51.80;;;;;;5025959;28;20465;-63
2023/02/18 08:09:28;;;;;;;0.82;0.00;;;21.60;51.60;;;;;;5028199;28;20433;-62
2023/02/18 08:11:56;;;;;;;0.80;0.10;;;21.70;51.70;;;;;;5027886;28;20053;-63
2023/02/18 08:14:23;;;;;;;0.10;0.10;;;21.70;51.50;;;;;;5027945;28;20489;-63
2023/02/18 08:16:50;;;;;;;2.90;0.65;;;21.70;51.50;;;;;;5027542;28;20046;-63
2023/02/18 08:19:17;;;;;;;1.42;0.08;;;21.60;51.40;;;;;;5027751;28;20041;-63
2023/02/18 08:21:44;;;;;;;0.80;0.25;;;21.70;51.50;;;;;;5027514;28;20088;-63
2023/02/18 08:24:12;;;;;;;3.30;0.13;;;21.60;51.40;;;;;;5025081;28;20068;-63
2023/02/18 08:26:39;;;;;;;0.30;0.08;;;21.60;48.70;;;;;;5025331;28;20481;-63
2023/02/18 08:29:07;;;;;;;1.95;0.13;;;21.30;46.70;;;;;;5023030;28;20056;-65
2023/02/18 08:31:34;;;;;;;0.10;0.10;;;20.90;45.60;;;;;;5035789;28;20132;-66
2023/02/18 08:34:03;;;;;;;0.47;0.10;;;20.50;45.50;;;;;;5037272;28;20040;-65
2023/02/18 08:36:30;;;;;;;0.45;0.10;;;20.20;45.20;;;;;;5024132;28;20076;-67
2023/02/18 08:38:58;;;;;;;0.63;0.10;;;19.80;45.20;;;;;;5024471;28;20041;-65
2023/02/18 08:41:25;;;;;;;1.15;0.85;;;19.50;45.20;;;;;;5024264;28;20099;-71
2023/02/18 08:43:52;;;;;;;1.98;0.10;;;19.30;45.40;;;;;;5025038;28;20033;-62
2023/02/18 08:46:20;;;;;;;0.17;0.10;;;19.10;45.50;;;;;;5022638;28;20136;-63
2023/02/18 08:48:47;;;;;;;5.43;0.17;;;18.90;45.50;;;;;;5056201;28;20172;-62
2023/02/18 08:51:17;;;;;;;1.35;0.25;;;18.70;45.70;;;;;;5007974;28;20049;-65
2023/02/18 08:53:46;;;;;;;0.28;0.10;;;18.50;45.80;;;;;;5021614;28;20513;-62
2023/02/18 08:56:14;;;;;;;2.15;0.50;;;18.40;46.00;;;;;;5023242;28;20505;-62
2023/02/18 08:58:42;;;;;;;0.40;0.00;;;18.30;46.00;;;;;;5023248;28;20057;-62
2023/02/18 09:01:12;;;;;;;1.13;0.13;;;18.20;46.10;;;;;;5021881;28;20041;-63
2023/02/18 09:03:41;;;;;;;0.22;0.10;;;18.10;46.20;;;;;;5023520;28;20215;-60
2023/02/18 09:06:08;;;;;;;0.45;0.10;;;18.00;46.50;;;;;;5023938;28;20068;-64
2023/02/18 09:08:36;;;;;;;1.02;0.10;;;17.90;46.50;;;;;;5022710;28;20064;-63
2023/02/18 09:11:04;;;;;;;1.17;0.20;;;17.80;46.40;;;;;;5023657;28;20409;-61
2023/02/18 09:13:32;;;;;;;0.10;0.00;;;17.80;46.60;;;;;;5023699;28;20135;-59
2023/02/18 09:16:00;;;;;;;0.63;0.10;;;17.70;46.70;;;;;;5023665;28;20057;-64
2023/02/18 09:18:28;;;;;;;2.17;0.10;;;17.60;46.80;;;;;;5023862;28;20533;-63
2023/02/18 09:21:00;;;;;;;0.40;0.15;;;17.50;46.90;;;;;;5039387;28;20056;-61
2023/02/18 09:23:29;;;;;;;1.48;0.10;;;17.50;47.00;;;;;;5043440;28;20041;-66
2023/02/18 09:25:57;;;;;;;3.15;0.10;;;17.50;47.70;;;;;;5029880;28;20044;-61
2023/02/18 09:28:25;;;;;;;3.03;0.10;;;17.40;47.20;;;;;;5023841;28;20128;-62
2023/02/18 09:30:52;;;;;;;0.20;0.10;;;17.40;47.30;;;;;;5033886;28;20036;-62
2023/02/18 09:33:19;;;;;;;0.68;0.03;;;17.40;47.40;;;;;;5035513;28;20503;-59
2023/02/18 09:35:47;;;;;;;1.20;0.10;;;17.40;47.40;;;;;;5037050;28;20152;-60
2023/02/18 09:38:18;;;;;;;4.72;0.10;;;17.40;47.50;;;;;;5029678;28;20051;-61
2023/02/18 09:40:48;;;;;;;1.65;0.20;;;17.40;47.50;;;;;;5042822;28;20056;-62
2023/02/18 09:43:23;;;;;;;3.28;0.55;;;17.40;47.40;;;;;;5040177;28;20041;-61
2023/02/18 09:45:52;;;;;;;1.00;0.10;;;17.40;47.40;;;;;;5022894;28;20036;-59
2023/02/18 09:48:25;;;;;;;0.40;0.17;;;17.40;47.40;;;;;;5022756;28;20128;-58
2023/02/18 09:50:52;;;;;;;2.13;0.17;;;17.40;47.40;;;;;;5022756;28;20535;-59
2023/02/18 09:53:22;;;;;;;1.60;0.10;;;17.30;47.30;;;;;;5022573;28;20432;-68
2023/02/18 09:55:50;;;;;;;0.28;0.10;;;17.30;47.30;;;;;;5023392;28;20120;-59
2023/02/18 09:58:20;;;;;;;1.83;0.00;;;17.30;47.40;;;;;;5022761;28;20567;-59
2023/02/18 10:00:50;;;;;;;2.72;0.52;;;17.30;47.40;;;;;;5022651;28;20833;-60
2023/02/18 10:03:20;;;;;;;0.80;0.10;;;17.30;47.40;;;;;;5021276;28;20057;-68
2023/02/18 10:05:56;;;;;;;3.75;0.77;;;17.20;47.30;;;;;;5022592;28;20041;-64
2023/02/18 10:08:27;;;;;;;0.82;0.10;;;17.20;47.30;;;;;;5022702;28;20045;-62
2023/02/18 10:10:54;;;;;;;1.75;0.10;;;17.20;47.40;;;;;;5022187;28;20045;-65
2023/02/18 10:13:24;;;;;;;0.85;0.10;;;17.20;47.50;;;;;;5022021;28;20826;-70
2023/02/18 10:15:51;;;;;;;1.48;0.00;;;17.20;47.50;;;;;;5022334;28;20532;-70
2023/02/18 10:18:27;;;;;;;0.17;0.00;;;17.20;47.40;;;;;;5022428;28;20045;-61
2023/02/18 10:21:01;;;;;;;2.05;0.35;;;17.20;48.00;;;;;;5025587;28;20083;-62
2023/02/18 10:23:31;;;;;;;2.35;0.10;;;17.30;48.70;;;;;;5026598;28;20034;-65
2023/02/18 10:26:02;;;;;;;2.80;0.10;;;17.60;48.90;;;;;;5027361;28;20536;-62
2023/02/18 10:28:30;;;;;;;2.17;0.10;;;17.90;49.00;;;;;;5026409;28;20042;-65
2023/02/18 10:31:00;;;;;;;1.85;0.10;;;18.20;48.80;;;;;;5025841;28;20041;-70
2023/02/18 10:33:34;;;;;;;0.40;0.30;;;18.40;48.70;;;;;;5024697;28;20129;-65
2023/02/18 10:36:15;;;;;;;1.25;0.10;;;18.70;48.60;;;;;;5024846;28;20052;-61
2023/02/18 10:38:59;;;;;;;1.83;0.00;;;18.90;48.20;;;;;;5026679;28;20140;-63
2023/02/18 10:41:32;;;;;;;1.00;0.10;;;19.20;48.00;;;;;;5027343;28;20132;-60
2023/02/18 10:44:08;;;;;;;2.80;0.28;;;19.30;47.80;;;;;;5026623;28;20162;-61
2023/02/18 10:46:44;;;;;;;3.17;0.50;;;19.50;48.40;;;;;;5006986;28;20128;-63
2023/02/18 10:49:31;;;;;;;11.57;0.50;;;19.60;49.00;;;;;;5022723;28;20045;-65
2023/02/18 10:52:01;;;;;;;1.73;1.05;;;19.80;49.70;;;;;;5024753;28;20111;-63
2023/02/18 10:54:50;;;;;;;6.78;0.55;;;19.90;49.80;;;;;;5025631;28;20048;-65
2023/02/18 10:57:18;;;;;;;4.65;0.20;;;20.10;50.30;;;;;;5025440;28;20057;-63
2023/02/18 10:59:55;;;;;;;3.60;0.10;;;20.20;50.30;;;;;;5023043;28;20211;-65
2023/02/18 11:02:25;;;;;;;4.32;0.95;;;20.40;49.80;;;;;;5024814;28;20532;-63
2023/02/18 11:04:52;;;;;;;11.80;0.20;;;20.40;49.50;;;;;;5025560;28;20042;-65
2023/02/18 11:07:23;;;;;;;2.13;0.17;;;20.50;49.40;;;;;;5025280;28;20056;-65
2023/02/18 11:09:54;;;;;;;3.22;0.65;;;20.60;49.40;;;;;;5025201;28;20057;-65
2023/02/18 11:12:23;;;;;;;3.22;0.10;;;20.70;48.90;;;;;;5023220;28;20111;-65
2023/02/18 11:15:05;;;;;;;2.58;0.20;;;20.80;48.50;;;;;;5025892;28;20166;-63
2023/02/18 11:17:36;;;;;;;2.92;0.43;;;20.90;48.50;;;;;;5025884;28;20076;-63
2023/02/18 11:20:24;;;;;;;1.33;0.30;;;20.90;47.90;;;;;;5025262;28;20615;-63
2023/02/18 11:22:51;;;;;;;1.38;0.15;;;21.00;47.70;;;;;;5025933;28;20399;-64
2023/02/18 11:25:25;;;;;;;1.48;0.28;;;21.00;47.50;;;;;;5025614;28;20056;-65
2023/02/18 11:27:56;;;;;;;1.75;0.15;;;21.10;47.20;;;;;;5025462;28;20096;-65
2023/02/18 11:30:26;;;;;;;0.60;0.10;;;21.20;46.90;;;;;;5024726;28;20481;-65
2023/02/18 11:32:56;;;;;;;2.20;0.10;;;21.20;46.90;;;;;;5025155;28;20053;-65
2023/02/18 11:35:27;;;;;;;1.75;0.73;;;21.30;47.20;;;;;;5025783;28;20050;-65
2023/02/18 11:37:56;;;;;;;3.47;0.60;;;21.30;46.90;;;;;;5025764;28;20073;-65
2023/02/18 11:40:29;;;;;;;1.13;0.10;;;21.30;46.70;;;;;;5024777;28;20049;-65
2023/02/18 11:43:04;;;;;;;0.90;0.38;;;21.40;46.40;;;;;;5021295;28;20042;-65
2023/02/18 11:45:33;;;;;;;0.35;0.10;;;21.40;46.10;;;;;;5028528;28;20037;-71
2023/02/18 11:48:06;;;;;;;4.78;0.35;;;21.40;46.40;;;;;;5037113;28;20060;-61
2023/02/18 11:50:34;;;;;;;0.20;0.20;;;21.50;46.80;;;;;;5028296;28;20045;-69
2023/02/18 11:53:26;;;;;;;2.70;0.65;;;21.50;47.50;;;;;;5025191;28;20038;-62
2023/02/18 11:55:57;;;;;;;2.25;0.10;;;21.50;48.00;;;;;;5038784;28;20066;-61
2023/02/18 11:58:24;;;;;;;4.10;0.50;;;21.50;48.30;;;;;;5040248;28;20041;-62
2023/02/18 12:00:55;;;;;;;0.45;0.10;;;21.60;48.60;;;;;;5024306;28;20049;-61
2023/02/18 12:03:34;;;;;;;0.40;0.10;;;21.60;48.60;;;;;;5024760;28;20132;-61
2023/02/18 12:06:04;;;;;;;0.40;0.40;;;21.70;48.80;;;;;;5024919;28;20048;-61
2023/02/18 12:08:37;;;;;;;2.38;0.10;;;21.70;48.70;;;;;;5024708;28;20548;-61
2023/02/18 12:11:11;;;;;;;2.85;0.50;;;21.80;48.80;;;;;;5024343;28;20337;-64
2023/02/18 12:13:44;;;;;;;0.10;0.10;;;21.80;48.60;;;;;;5024849;28;20117;-62
2023/02/18 12:16:25;;;;;;;1.83;0.10;;;21.90;48.70;;;;;;5025082;28;20517;-63
2023/02/18 12:19:03;;;;;;;0.90;0.13;;;21.90;48.50;;;;;;5024838;28;20133;-69
2023/02/18 12:21:39;;;;;;;0.20;0.08;;;21.90;48.50;;;;;;5024476;28;20128;-62
2023/02/18 12:24:24;;;;;;;0.47;0.10;;;22.00;48.50;;;;;;5024307;28;20046;-65
2023/02/18 12:27:04;;;;;;;0.68;0.10;;;22.00;48.50;;;;;;5031074;28;20045;-62
2023/02/18 12:29:48;;;;;;;1.00;0.32;;;22.10;48.60;;;;;;5024488;28;20175;-64
2023/02/18 12:32:25;;;;;;;0.25;0.20;;;22.10;48.60;;;;;;5024724;28;20153;-63
2023/02/18 12:35:11;;;;;;;2.05;0.10;;;22.10;48.50;;;;;;5024806;28;20425;-62
2023/02/18 12:38:00;;;;;;;2.67;0.10;;;22.20;48.40;;;;;;5004632;28;20133;-63
2023/02/18 12:40:44;;;;;;;0.22;0.10;;;22.20;48.40;;;;;;5004682;28;20746;-64
2023/02/18 12:43:22;;;;;;;1.50;0.10;;;22.30;48.40;;;;;;5004215;28;20159;-65
2023/02/18 12:46:10;;;;;;;1.00;0.50;;;22.30;48.20;;;;;;5005130;28;20116;-64
2023/02/18 12:48:52;;;;;;;3.22;0.10;;;22.30;48.10;;;;;;5017717;28;20573;-67
2023/02/18 12:51:31;;;;;;;0.08;0.00;;;22.40;48.00;;;;;;5024265;28;20057;-68
2023/02/18 12:54:28;;;;;;;1.10;0.20;;;22.40;48.00;;;;;;5023873;28;20061;-69
2023/02/18 12:57:08;;;;;;;1.27;0.15;;;22.40;47.90;;;;;;5025237;28;20721;-55
2023/02/18 12:59:58;;;;;;;2.78;0.20;;;22.50;47.80;;;;;;5021301;28;20251;-55
2023/02/18 13:02:50;;;;;;;3.13;0.70;;;22.50;47.50;;;;;;5021460;28;20041;-54
2023/02/18 13:05:29;;;;;;;2.17;0.00;;;22.50;47.30;;;;;;5022555;28;20518;-56
2023/02/18 13:08:14;;;;;;;5.30;0.00;;;22.50;47.20;;;;;;5020502;28;20053;-56
2023/02/18 13:11:00;;;;;;;4.72;0.10;;;22.60;47.10;;;;;;5021463;28;20099;-56